sensor_id;sensor_type;location;lat;lon;timestamp;P1;durP1;ratioP1;P2;durP2;ratioP2
35847;SDS011;22332;51.954;20.118;2023-07-31T00:02:35;3.10;;;1.90;;
35847;SDS011;22332;51.954;20.118;2023-07-31T00:05:41;2.30;;;1.80;;
35847;SDS011;22332;51.954;20.118;2023-07-31T00:08:46;2.30;;;1.80;;
35847;SDS011;22332;51.954;20.118;2023-07-31T00:11:52;2.60;;;1.90;;
35847;SDS011;22332;51.954;20.118;2023-07-31T00:14:57;1.80;;;1.60;;
35847;SDS011;22332;51.954;20.118;2023-07-31T00:18:02;1.70;;;1.60;;
35847;SDS011;22332;51.954;20.118;2023-07-31T00:21:08;2.00;;;1.70;;
35847;SDS011;22332;51.954;20.118;2023-07-31T00:24:13;1.70;;;1.60;;
35847;SDS011;22332;51.954;20.118;2023-07-31T00:27:19;2.80;;;1.70;;
35847;SDS011;22332;51.954;20.118;2023-07-31T00:30:24;2.10;;;1.80;;
35847;SDS011;22332;51.954;20.118;2023-07-31T00:33:31;1.70;;;1.60;;
35847;SDS011;22332;51.954;20.118;2023-07-31T00:36:40;3.40;;;1.70;;
35847;SDS011;22332;51.954;20.118;2023-07-31T00:39:45;2.00;;;1.50;;
35847;SDS011;22332;51.954;20.118;2023-07-31T00:42:51;2.00;;;1.70;;
35847;SDS011;22332;51.954;20.118;2023-07-31T00:45:56;2.90;;;2.10;;
35847;SDS011;22332;51.954;20.118;2023-07-31T00:49:02;2.20;;;1.80;;
35847;SDS011;22332;51.954;20.118;2023-07-31T00:52:08;2.30;;;1.80;;
35847;SDS011;22332;51.954;20.118;2023-07-31T00:55:14;2.20;;;2.00;;
35847;SDS011;22332;51.954;20.118;2023-07-31T00:58:21;2.30;;;2.10;;
35847;SDS011;22332;51.954;20.118;2023-07-31T01:01:28;4.10;;;2.30;;
35847;SDS011;22332;51.954;20.118;2023-07-31T01:04:34;4.00;;;2.00;;
35847;SDS011;22332;51.954;20.118;2023-07-31T01:07:42;2.70;;;1.80;;
35847;SDS011;22332;51.954;20.118;2023-07-31T01:10:55;3.00;;;2.10;;
35847;SDS011;22332;51.954;20.118;2023-07-31T01:14:04;3.80;;;2.30;;
35847;SDS011;22332;51.954;20.118;2023-07-31T01:17:10;4.30;;;2.20;;
35847;SDS011;22332;51.954;20.118;2023-07-31T01:20:17;2.50;;;2.30;;
35847;SDS011;22332;51.954;20.118;2023-07-31T01:26:57;2.80;;;2.30;;
35847;SDS011;22332;51.954;20.118;2023-07-31T01:30:09;3.20;;;2.20;;
35847;SDS011;22332;51.954;20.118;2023-07-31T01:36:23;2.60;;;2.30;;
35847;SDS011;22332;51.954;20.118;2023-07-31T01:39:30;3.70;;;3.00;;
35847;SDS011;22332;51.954;20.118;2023-07-31T01:42:36;2.60;;;2.40;;
35847;SDS011;22332;51.954;20.118;2023-07-31T01:45:41;2.70;;;2.20;;
35847;SDS011;22332;51.954;20.118;2023-07-31T01:48:47;2.80;;;2.40;;
35847;SDS011;22332;51.954;20.118;2023-07-31T01:51:52;3.30;;;2.50;;
35847;SDS011;22332;51.954;20.118;2023-07-31T01:54:59;4.00;;;2.70;;
35847;SDS011;22332;51.954;20.118;2023-07-31T01:58:05;4.50;;;2.80;;
35847;SDS011;22332;51.954;20.118;2023-07-31T02:01:10;3.20;;;2.80;;
35847;SDS011;22332;51.954;20.118;2023-07-31T02:04:16;3.20;;;2.90;;
35847;SDS011;22332;51.954;20.118;2023-07-31T02:07:21;3.80;;;2.70;;
35847;SDS011;22332;51.954;20.118;2023-07-31T02:10:27;3.60;;;2.80;;
35847;SDS011;22332;51.954;20.118;2023-07-31T02:13:32;3.80;;;2.20;;
35847;SDS011;22332;51.954;20.118;2023-07-31T02:16:39;4.40;;;2.90;;
35847;SDS011;22332;51.954;20.118;2023-07-31T02:19:45;4.10;;;2.70;;
35847;SDS011;22332;51.954;20.118;2023-07-31T02:22:51;4.10;;;2.50;;
35847;SDS011;22332;51.954;20.118;2023-07-31T02:25:56;3.00;;;2.70;;
35847;SDS011;22332;51.954;20.118;2023-07-31T02:29:02;3.50;;;2.60;;
35847;SDS011;22332;51.954;20.118;2023-07-31T02:32:08;3.10;;;2.80;;
35847;SDS011;22332;51.954;20.118;2023-07-31T02:35:13;4.50;;;3.10;;
35847;SDS011;22332;51.954;20.118;2023-07-31T02:38:19;3.40;;;2.70;;
35847;SDS011;22332;51.954;20.118;2023-07-31T02:41:24;3.40;;;2.70;;
35847;SDS011;22332;51.954;20.118;2023-07-31T02:44:30;4.50;;;2.40;;
35847;SDS011;22332;51.954;20.118;2023-07-31T02:47:35;3.30;;;2.30;;
35847;SDS011;22332;51.954;20.118;2023-07-31T02:50:41;4.50;;;2.70;;
35847;SDS011;22332;51.954;20.118;2023-07-31T02:53:46;3.90;;;2.40;;
35847;SDS011;22332;51.954;20.118;2023-07-31T02:56:52;4.30;;;2.40;;
35847;SDS011;22332;51.954;20.118;2023-07-31T02:59:58;3.00;;;2.20;;
35847;SDS011;22332;51.954;20.118;2023-07-31T03:03:03;3.10;;;2.50;;
35847;SDS011;22332;51.954;20.118;2023-07-31T03:06:09;4.80;;;2.40;;
35847;SDS011;22332;51.954;20.118;2023-07-31T03:09:15;3.80;;;2.60;;
35847;SDS011;22332;51.954;20.118;2023-07-31T03:12:21;3.50;;;2.70;;
35847;SDS011;22332;51.954;20.118;2023-07-31T03:15:27;4.70;;;2.80;;
35847;SDS011;22332;51.954;20.118;2023-07-31T03:18:32;4.60;;;2.40;;
35847;SDS011;22332;51.954;20.118;2023-07-31T03:21:38;3.00;;;2.40;;
35847;SDS011;22332;51.954;20.118;2023-07-31T03:24:44;3.40;;;2.50;;
35847;SDS011;22332;51.954;20.118;2023-07-31T03:27:49;3.30;;;2.30;;
35847;SDS011;22332;51.954;20.118;2023-07-31T03:30:55;2.60;;;2.40;;
35847;SDS011;22332;51.954;20.118;2023-07-31T03:34:01;2.40;;;2.20;;
35847;SDS011;22332;51.954;20.118;2023-07-31T03:37:06;2.90;;;2.30;;
35847;SDS011;22332;51.954;20.118;2023-07-31T03:40:12;2.50;;;2.00;;
35847;SDS011;22332;51.954;20.118;2023-07-31T03:43:18;2.10;;;1.70;;
35847;SDS011;22332;51.954;20.118;2023-07-31T03:46:24;3.90;;;2.30;;
35847;SDS011;22332;51.954;20.118;2023-07-31T03:49:30;3.20;;;2.50;;
35847;SDS011;22332;51.954;20.118;2023-07-31T03:52:37;3.10;;;2.50;;
35847;SDS011;22332;51.954;20.118;2023-07-31T03:55:42;2.40;;;2.20;;
35847;SDS011;22332;51.954;20.118;2023-07-31T03:58:48;3.10;;;2.40;;
35847;SDS011;22332;51.954;20.118;2023-07-31T04:01:53;2.80;;;2.20;;
35847;SDS011;22332;51.954;20.118;2023-07-31T04:04:59;3.70;;;2.40;;
35847;SDS011;22332;51.954;20.118;2023-07-31T04:08:05;2.70;;;2.10;;
35847;SDS011;22332;51.954;20.118;2023-07-31T04:11:10;3.40;;;2.30;;
35847;SDS011;22332;51.954;20.118;2023-07-31T04:14:16;6.80;;;2.30;;
35847;SDS011;22332;51.954;20.118;2023-07-31T04:17:21;2.90;;;2.20;;
35847;SDS011;22332;51.954;20.118;2023-07-31T04:20:27;3.90;;;2.30;;
35847;SDS011;22332;51.954;20.118;2023-07-31T04:23:32;3.60;;;2.30;;
35847;SDS011;22332;51.954;20.118;2023-07-31T04:26:38;4.10;;;2.50;;
35847;SDS011;22332;51.954;20.118;2023-07-31T04:29:43;3.40;;;2.30;;
35847;SDS011;22332;51.954;20.118;2023-07-31T04:32:50;2.30;;;1.90;;
35847;SDS011;22332;51.954;20.118;2023-07-31T04:35:55;2.90;;;2.00;;
35847;SDS011;22332;51.954;20.118;2023-07-31T04:39:01;3.10;;;2.10;;
35847;SDS011;22332;51.954;20.118;2023-07-31T04:42:07;4.00;;;2.10;;
35847;SDS011;22332;51.954;20.118;2023-07-31T04:45:12;3.00;;;2.10;;
35847;SDS011;22332;51.954;20.118;2023-07-31T04:48:18;2.60;;;1.90;;
35847;SDS011;22332;51.954;20.118;2023-07-31T04:51:24;2.60;;;2.00;;
35847;SDS011;22332;51.954;20.118;2023-07-31T04:54:29;2.40;;;1.90;;
35847;SDS011;22332;51.954;20.118;2023-07-31T04:57:35;4.50;;;2.00;;
35847;SDS011;22332;51.954;20.118;2023-07-31T05:00:40;2.40;;;2.00;;
35847;SDS011;22332;51.954;20.118;2023-07-31T05:03:46;2.70;;;2.10;;
35847;SDS011;22332;51.954;20.118;2023-07-31T05:06:51;3.70;;;2.20;;
35847;SDS011;22332;51.954;20.118;2023-07-31T05:09:57;2.90;;;2.00;;
35847;SDS011;22332;51.954;20.118;2023-07-31T05:13:02;2.60;;;1.90;;
35847;SDS011;22332;51.954;20.118;2023-07-31T05:16:08;3.20;;;2.10;;
35847;SDS011;22332;51.954;20.118;2023-07-31T05:19:14;3.10;;;2.10;;
35847;SDS011;22332;51.954;20.118;2023-07-31T05:22:19;2.70;;;1.80;;
35847;SDS011;22332;51.954;20.118;2023-07-31T05:25:25;2.20;;;1.70;;
35847;SDS011;22332;51.954;20.118;2023-07-31T05:28:30;2.40;;;1.90;;
35847;SDS011;22332;51.954;20.118;2023-07-31T05:31:37;5.10;;;1.90;;
35847;SDS011;22332;51.954;20.118;2023-07-31T05:34:43;2.60;;;2.00;;
35847;SDS011;22332;51.954;20.118;2023-07-31T05:37:48;3.00;;;2.10;;
35847;SDS011;22332;51.954;20.118;2023-07-31T05:40:54;3.40;;;2.20;;
35847;SDS011;22332;51.954;20.118;2023-07-31T05:43:59;2.40;;;2.20;;
35847;SDS011;22332;51.954;20.118;2023-07-31T05:47:05;3.20;;;2.20;;
35847;SDS011;22332;51.954;20.118;2023-07-31T05:50:11;4.80;;;2.50;;
35847;SDS011;22332;51.954;20.118;2023-07-31T05:53:17;3.80;;;2.40;;
35847;SDS011;22332;51.954;20.118;2023-07-31T05:56:22;4.00;;;2.00;;
35847;SDS011;22332;51.954;20.118;2023-07-31T05:59:30;3.30;;;2.10;;
35847;SDS011;22332;51.954;20.118;2023-07-31T06:02:35;2.70;;;1.90;;
35847;SDS011;22332;51.954;20.118;2023-07-31T06:05:41;2.50;;;2.20;;
35847;SDS011;22332;51.954;20.118;2023-07-31T06:08:47;3.60;;;2.00;;
35847;SDS011;22332;51.954;20.118;2023-07-31T06:11:53;3.50;;;2.30;;
35847;SDS011;22332;51.954;20.118;2023-07-31T06:14:59;3.60;;;2.30;;
35847;SDS011;22332;51.954;20.118;2023-07-31T06:18:05;4.00;;;2.10;;
35847;SDS011;22332;51.954;20.118;2023-07-31T06:21:10;3.00;;;2.30;;
35847;SDS011;22332;51.954;20.118;2023-07-31T06:24:16;3.50;;;2.30;;
35847;SDS011;22332;51.954;20.118;2023-07-31T06:27:23;2.50;;;2.10;;
35847;SDS011;22332;51.954;20.118;2023-07-31T06:30:29;2.90;;;2.30;;
35847;SDS011;22332;51.954;20.118;2023-07-31T06:33:34;3.70;;;2.30;;
35847;SDS011;22332;51.954;20.118;2023-07-31T06:36:40;2.60;;;2.10;;
35847;SDS011;22332;51.954;20.118;2023-07-31T06:39:45;3.90;;;2.30;;
35847;SDS011;22332;51.954;20.118;2023-07-31T06:42:51;2.90;;;2.30;;
35847;SDS011;22332;51.954;20.118;2023-07-31T06:45:56;4.00;;;2.20;;
35847;SDS011;22332;51.954;20.118;2023-07-31T06:49:03;3.70;;;2.10;;
35847;SDS011;22332;51.954;20.118;2023-07-31T06:52:09;2.50;;;2.00;;
35847;SDS011;22332;51.954;20.118;2023-07-31T06:55:18;2.90;;;2.20;;
35847;SDS011;22332;51.954;20.118;2023-07-31T06:58:24;2.80;;;2.10;;
35847;SDS011;22332;51.954;20.118;2023-07-31T07:01:30;2.30;;;2.10;;
35847;SDS011;22332;51.954;20.118;2023-07-31T07:04:35;4.00;;;2.30;;
35847;SDS011;22332;51.954;20.118;2023-07-31T07:07:41;4.20;;;2.00;;
35847;SDS011;22332;51.954;20.118;2023-07-31T07:10:47;3.40;;;2.10;;
35847;SDS011;22332;51.954;20.118;2023-07-31T07:13:52;3.10;;;1.90;;
35847;SDS011;22332;51.954;20.118;2023-07-31T07:16:58;3.70;;;2.10;;
35847;SDS011;22332;51.954;20.118;2023-07-31T07:20:05;2.50;;;1.90;;
35847;SDS011;22332;51.954;20.118;2023-07-31T07:23:12;2.80;;;1.80;;
35847;SDS011;22332;51.954;20.118;2023-07-31T07:26:17;2.10;;;1.90;;
35847;SDS011;22332;51.954;20.118;2023-07-31T07:29:23;2.70;;;1.80;;
35847;SDS011;22332;51.954;20.118;2023-07-31T07:32:29;3.80;;;1.80;;
35847;SDS011;22332;51.954;20.118;2023-07-31T07:35:34;4.20;;;2.10;;
35847;SDS011;22332;51.954;20.118;2023-07-31T07:38:40;3.50;;;1.90;;
35847;SDS011;22332;51.954;20.118;2023-07-31T07:41:46;3.30;;;2.10;;
35847;SDS011;22332;51.954;20.118;2023-07-31T07:44:51;2.90;;;2.20;;
35847;SDS011;22332;51.954;20.118;2023-07-31T07:47:57;2.70;;;1.50;;
35847;SDS011;22332;51.954;20.118;2023-07-31T07:51:02;4.00;;;1.80;;
35847;SDS011;22332;51.954;20.118;2023-07-31T07:54:08;3.00;;;1.90;;
35847;SDS011;22332;51.954;20.118;2023-07-31T07:57:13;2.10;;;1.70;;
35847;SDS011;22332;51.954;20.118;2023-07-31T08:00:19;2.50;;;1.80;;
35847;SDS011;22332;51.954;20.118;2023-07-31T08:03:24;2.90;;;1.70;;
35847;SDS011;22332;51.954;20.118;2023-07-31T08:06:30;2.50;;;1.80;;
35847;SDS011;22332;51.954;20.118;2023-07-31T08:09:36;4.10;;;2.00;;
35847;SDS011;22332;51.954;20.118;2023-07-31T08:12:41;3.40;;;1.60;;
35847;SDS011;22332;51.954;20.118;2023-07-31T08:15:47;3.00;;;1.80;;
35847;SDS011;22332;51.954;20.118;2023-07-31T08:18:52;3.30;;;1.80;;
35847;SDS011;22332;51.954;20.118;2023-07-31T08:21:58;2.80;;;1.80;;
35847;SDS011;22332;51.954;20.118;2023-07-31T08:25:04;3.20;;;1.70;;
35847;SDS011;22332;51.954;20.118;2023-07-31T08:28:11;2.00;;;1.80;;
35847;SDS011;22332;51.954;20.118;2023-07-31T08:31:16;2.50;;;1.70;;
35847;SDS011;22332;51.954;20.118;2023-07-31T08:34:22;2.90;;;1.90;;
35847;SDS011;22332;51.954;20.118;2023-07-31T08:37:28;2.80;;;1.90;;
35847;SDS011;22332;51.954;20.118;2023-07-31T08:40:33;4.60;;;1.60;;
35847;SDS011;22332;51.954;20.118;2023-07-31T08:43:41;2.90;;;1.70;;
35847;SDS011;22332;51.954;20.118;2023-07-31T08:46:47;2.30;;;1.60;;
35847;SDS011;22332;51.954;20.118;2023-07-31T08:49:55;3.00;;;1.60;;
35847;SDS011;22332;51.954;20.118;2023-07-31T08:53:01;2.20;;;1.60;;
35847;SDS011;22332;51.954;20.118;2023-07-31T08:56:06;2.00;;;1.50;;
35847;SDS011;22332;51.954;20.118;2023-07-31T08:59:15;3.40;;;1.60;;
35847;SDS011;22332;51.954;20.118;2023-07-31T09:02:24;2.90;;;1.50;;
35847;SDS011;22332;51.954;20.118;2023-07-31T09:05:38;3.10;;;1.50;;
35847;SDS011;22332;51.954;20.118;2023-07-31T09:08:48;2.80;;;1.50;;
35847;SDS011;22332;51.954;20.118;2023-07-31T09:11:54;1.40;;;1.20;;
35847;SDS011;22332;51.954;20.118;2023-07-31T09:15:01;2.10;;;1.30;;
35847;SDS011;22332;51.954;20.118;2023-07-31T09:18:12;2.20;;;1.30;;
35847;SDS011;22332;51.954;20.118;2023-07-31T09:21:21;5.30;;;1.30;;
35847;SDS011;22332;51.954;20.118;2023-07-31T09:24:29;2.70;;;1.30;;
35847;SDS011;22332;51.954;20.118;2023-07-31T09:27:46;1.80;;;1.30;;
35847;SDS011;22332;51.954;20.118;2023-07-31T09:30:53;3.00;;;1.40;;
35847;SDS011;22332;51.954;20.118;2023-07-31T09:33:58;1.60;;;1.30;;
35847;SDS011;22332;51.954;20.118;2023-07-31T09:37:05;1.80;;;1.20;;
35847;SDS011;22332;51.954;20.118;2023-07-31T09:40:11;2.00;;;1.50;;
35847;SDS011;22332;51.954;20.118;2023-07-31T09:43:30;2.40;;;1.10;;
35847;SDS011;22332;51.954;20.118;2023-07-31T09:46:36;2.50;;;1.30;;
35847;SDS011;22332;51.954;20.118;2023-07-31T09:49:46;1.80;;;1.40;;
35847;SDS011;22332;51.954;20.118;2023-07-31T09:52:52;1.70;;;1.00;;
35847;SDS011;22332;51.954;20.118;2023-07-31T09:55:59;1.40;;;1.00;;
35847;SDS011;22332;51.954;20.118;2023-07-31T09:59:05;2.60;;;1.30;;
35847;SDS011;22332;51.954;20.118;2023-07-31T10:02:14;2.40;;;1.20;;
35847;SDS011;22332;51.954;20.118;2023-07-31T10:05:25;3.80;;;1.30;;
35847;SDS011;22332;51.954;20.118;2023-07-31T10:08:38;3.20;;;1.20;;
35847;SDS011;22332;51.954;20.118;2023-07-31T10:11:46;2.20;;;1.10;;
35847;SDS011;22332;51.954;20.118;2023-07-31T10:14:58;1.80;;;1.10;;
35847;SDS011;22332;51.954;20.118;2023-07-31T10:18:05;1.60;;;1.10;;
35847;SDS011;22332;51.954;20.118;2023-07-31T10:21:11;1.90;;;1.20;;
35847;SDS011;22332;51.954;20.118;2023-07-31T10:24:18;2.70;;;1.40;;
35847;SDS011;22332;51.954;20.118;2023-07-31T10:27:25;2.80;;;1.50;;
35847;SDS011;22332;51.954;20.118;2023-07-31T10:30:32;2.30;;;1.40;;
35847;SDS011;22332;51.954;20.118;2023-07-31T10:33:41;2.70;;;1.20;;
35847;SDS011;22332;51.954;20.118;2023-07-31T10:36:47;1.90;;;1.20;;
35847;SDS011;22332;51.954;20.118;2023-07-31T10:39:57;2.00;;;1.20;;
35847;SDS011;22332;51.954;20.118;2023-07-31T10:43:04;2.70;;;1.00;;
35847;SDS011;22332;51.954;20.118;2023-07-31T10:46:12;3.60;;;1.20;;
35847;SDS011;22332;51.954;20.118;2023-07-31T10:49:21;2.20;;;1.40;;
35847;SDS011;22332;51.954;20.118;2023-07-31T10:52:29;3.40;;;1.10;;
35847;SDS011;22332;51.954;20.118;2023-07-31T10:55:40;2.10;;;1.20;;
35847;SDS011;22332;51.954;20.118;2023-07-31T10:58:48;2.40;;;1.20;;
35847;SDS011;22332;51.954;20.118;2023-07-31T11:02:06;3.20;;;1.40;;
35847;SDS011;22332;51.954;20.118;2023-07-31T11:05:41;3.10;;;1.80;;
35847;SDS011;22332;51.954;20.118;2023-07-31T11:08:49;2.50;;;1.30;;
35847;SDS011;22332;51.954;20.118;2023-07-31T11:11:55;2.60;;;1.30;;
35847;SDS011;22332;51.954;20.118;2023-07-31T11:15:00;2.90;;;1.20;;
35847;SDS011;22332;51.954;20.118;2023-07-31T11:18:07;2.00;;;1.10;;
35847;SDS011;22332;51.954;20.118;2023-07-31T11:21:14;2.70;;;1.50;;
35847;SDS011;22332;51.954;20.118;2023-07-31T11:24:21;2.70;;;1.20;;
35847;SDS011;22332;51.954;20.118;2023-07-31T11:27:28;3.60;;;1.20;;
35847;SDS011;22332;51.954;20.118;2023-07-31T11:30:34;2.40;;;1.10;;
35847;SDS011;22332;51.954;20.118;2023-07-31T11:33:41;2.90;;;1.20;;
35847;SDS011;22332;51.954;20.118;2023-07-31T11:36:54;2.50;;;1.40;;
35847;SDS011;22332;51.954;20.118;2023-07-31T11:40:00;2.30;;;1.60;;
35847;SDS011;22332;51.954;20.118;2023-07-31T11:43:06;2.90;;;1.30;;
35847;SDS011;22332;51.954;20.118;2023-07-31T11:46:12;3.90;;;1.40;;
35847;SDS011;22332;51.954;20.118;2023-07-31T11:49:18;2.50;;;1.50;;
35847;SDS011;22332;51.954;20.118;2023-07-31T11:52:24;2.10;;;1.30;;
35847;SDS011;22332;51.954;20.118;2023-07-31T11:55:31;2.30;;;1.30;;
35847;SDS011;22332;51.954;20.118;2023-07-31T11:58:37;4.60;;;1.40;;
35847;SDS011;22332;51.954;20.118;2023-07-31T12:01:44;3.20;;;1.40;;
35847;SDS011;22332;51.954;20.118;2023-07-31T12:04:53;2.70;;;1.20;;
35847;SDS011;22332;51.954;20.118;2023-07-31T12:08:01;3.90;;;1.40;;
35847;SDS011;22332;51.954;20.118;2023-07-31T12:11:17;2.80;;;1.30;;
35847;SDS011;22332;51.954;20.118;2023-07-31T12:14:23;6.70;;;1.60;;
35847;SDS011;22332;51.954;20.118;2023-07-31T12:17:31;2.20;;;1.20;;
35847;SDS011;22332;51.954;20.118;2023-07-31T12:20:39;3.50;;;1.30;;
35847;SDS011;22332;51.954;20.118;2023-07-31T12:23:47;3.00;;;1.50;;
35847;SDS011;22332;51.954;20.118;2023-07-31T12:26:56;2.00;;;1.20;;
35847;SDS011;22332;51.954;20.118;2023-07-31T12:30:01;2.70;;;1.50;;
35847;SDS011;22332;51.954;20.118;2023-07-31T12:33:12;3.80;;;2.00;;
35847;SDS011;22332;51.954;20.118;2023-07-31T12:36:20;1.40;;;1.10;;
35847;SDS011;22332;51.954;20.118;2023-07-31T12:39:26;1.90;;;1.30;;
35847;SDS011;22332;51.954;20.118;2023-07-31T12:42:32;1.90;;;1.10;;
35847;SDS011;22332;51.954;20.118;2023-07-31T12:45:37;2.20;;;1.20;;
35847;SDS011;22332;51.954;20.118;2023-07-31T12:48:43;3.10;;;1.40;;
35847;SDS011;22332;51.954;20.118;2023-07-31T12:51:49;3.30;;;1.20;;
35847;SDS011;22332;51.954;20.118;2023-07-31T12:54:54;2.80;;;1.20;;
35847;SDS011;22332;51.954;20.118;2023-07-31T12:58:00;2.50;;;1.30;;
35847;SDS011;22332;51.954;20.118;2023-07-31T13:01:05;1.40;;;1.00;;
35847;SDS011;22332;51.954;20.118;2023-07-31T13:04:11;3.40;;;1.50;;
35847;SDS011;22332;51.954;20.118;2023-07-31T13:07:17;2.00;;;1.20;;
35847;SDS011;22332;51.954;20.118;2023-07-31T13:10:23;2.00;;;1.30;;
35847;SDS011;22332;51.954;20.118;2023-07-31T13:13:29;3.40;;;1.20;;
35847;SDS011;22332;51.954;20.118;2023-07-31T13:16:35;1.90;;;1.20;;
35847;SDS011;22332;51.954;20.118;2023-07-31T13:19:40;1.70;;;1.20;;
35847;SDS011;22332;51.954;20.118;2023-07-31T13:22:46;1.90;;;1.20;;
35847;SDS011;22332;51.954;20.118;2023-07-31T13:25:51;2.90;;;1.40;;
35847;SDS011;22332;51.954;20.118;2023-07-31T13:28:57;2.10;;;1.30;;
35847;SDS011;22332;51.954;20.118;2023-07-31T13:32:02;2.70;;;1.40;;
35847;SDS011;22332;51.954;20.118;2023-07-31T13:35:09;3.20;;;1.40;;
35847;SDS011;22332;51.954;20.118;2023-07-31T13:38:15;3.70;;;1.40;;
35847;SDS011;22332;51.954;20.118;2023-07-31T13:41:20;3.60;;;1.40;;
35847;SDS011;22332;51.954;20.118;2023-07-31T13:44:26;1.70;;;1.10;;
35847;SDS011;22332;51.954;20.118;2023-07-31T13:47:34;3.50;;;1.10;;
35847;SDS011;22332;51.954;20.118;2023-07-31T13:50:40;1.50;;;1.10;;
35847;SDS011;22332;51.954;20.118;2023-07-31T13:53:45;2.10;;;1.10;;
35847;SDS011;22332;51.954;20.118;2023-07-31T13:56:51;2.40;;;1.30;;
35847;SDS011;22332;51.954;20.118;2023-07-31T14:00:06;1.80;;;1.30;;
35847;SDS011;22332;51.954;20.118;2023-07-31T14:03:12;2.10;;;1.20;;
35847;SDS011;22332;51.954;20.118;2023-07-31T14:06:18;1.70;;;1.20;;
35847;SDS011;22332;51.954;20.118;2023-07-31T14:09:25;2.70;;;1.30;;
35847;SDS011;22332;51.954;20.118;2023-07-31T14:12:31;1.70;;;1.10;;
35847;SDS011;22332;51.954;20.118;2023-07-31T14:15:37;2.00;;;1.20;;
35847;SDS011;22332;51.954;20.118;2023-07-31T14:18:43;2.00;;;1.10;;
35847;SDS011;22332;51.954;20.118;2023-07-31T14:21:49;3.10;;;1.00;;
35847;SDS011;22332;51.954;20.118;2023-07-31T14:24:55;2.60;;;1.00;;
35847;SDS011;22332;51.954;20.118;2023-07-31T14:28:00;3.00;;;1.30;;
35847;SDS011;22332;51.954;20.118;2023-07-31T14:31:06;2.40;;;1.20;;
35847;SDS011;22332;51.954;20.118;2023-07-31T14:34:11;3.10;;;1.20;;
35847;SDS011;22332;51.954;20.118;2023-07-31T14:37:18;2.60;;;1.20;;
35847;SDS011;22332;51.954;20.118;2023-07-31T14:40:24;2.00;;;1.30;;
35847;SDS011;22332;51.954;20.118;2023-07-31T14:43:30;3.30;;;1.20;;
35847;SDS011;22332;51.954;20.118;2023-07-31T14:46:35;1.30;;;1.00;;
35847;SDS011;22332;51.954;20.118;2023-07-31T14:49:41;5.30;;;1.30;;
35847;SDS011;22332;51.954;20.118;2023-07-31T14:52:46;2.90;;;1.40;;
35847;SDS011;22332;51.954;20.118;2023-07-31T14:55:52;2.90;;;1.20;;
35847;SDS011;22332;51.954;20.118;2023-07-31T14:58:58;3.30;;;1.50;;
35847;SDS011;22332;51.954;20.118;2023-07-31T15:02:04;2.00;;;1.30;;
35847;SDS011;22332;51.954;20.118;2023-07-31T15:05:12;2.50;;;1.30;;
35847;SDS011;22332;51.954;20.118;2023-07-31T15:08:17;2.70;;;1.60;;
35847;SDS011;22332;51.954;20.118;2023-07-31T15:11:23;2.30;;;1.30;;
35847;SDS011;22332;51.954;20.118;2023-07-31T15:14:29;3.90;;;1.40;;
35847;SDS011;22332;51.954;20.118;2023-07-31T15:17:34;2.90;;;1.40;;
35847;SDS011;22332;51.954;20.118;2023-07-31T15:20:40;2.30;;;1.20;;
35847;SDS011;22332;51.954;20.118;2023-07-31T15:23:45;2.10;;;1.30;;
35847;SDS011;22332;51.954;20.118;2023-07-31T15:26:51;2.60;;;1.50;;
35847;SDS011;22332;51.954;20.118;2023-07-31T15:29:57;1.90;;;1.30;;
35847;SDS011;22332;51.954;20.118;2023-07-31T15:33:03;3.80;;;1.30;;
35847;SDS011;22332;51.954;20.118;2023-07-31T15:36:09;3.80;;;1.20;;
35847;SDS011;22332;51.954;20.118;2023-07-31T15:39:14;3.60;;;1.50;;
35847;SDS011;22332;51.954;20.118;2023-07-31T15:42:20;3.50;;;1.30;;
35847;SDS011;22332;51.954;20.118;2023-07-31T15:45:25;2.00;;;1.40;;
35847;SDS011;22332;51.954;20.118;2023-07-31T15:48:33;2.40;;;1.80;;
35847;SDS011;22332;51.954;20.118;2023-07-31T15:51:38;4.60;;;4.10;;
35847;SDS011;22332;51.954;20.118;2023-07-31T15:54:44;12.00;;;9.40;;
35847;SDS011;22332;51.954;20.118;2023-07-31T15:57:49;16.30;;;14.20;;
35847;SDS011;22332;51.954;20.118;2023-07-31T16:00:55;30.10;;;26.10;;
35847;SDS011;22332;51.954;20.118;2023-07-31T16:04:01;9.40;;;7.70;;
35847;SDS011;22332;51.954;20.118;2023-07-31T16:07:07;4.40;;;3.30;;
35847;SDS011;22332;51.954;20.118;2023-07-31T16:10:15;3.20;;;2.20;;
35847;SDS011;22332;51.954;20.118;2023-07-31T16:13:21;3.90;;;1.80;;
35847;SDS011;22332;51.954;20.118;2023-07-31T16:16:26;4.00;;;2.10;;
35847;SDS011;22332;51.954;20.118;2023-07-31T16:19:32;2.90;;;1.60;;
35847;SDS011;22332;51.954;20.118;2023-07-31T16:22:37;3.00;;;1.60;;
35847;SDS011;22332;51.954;20.118;2023-07-31T16:25:43;2.40;;;1.60;;
35847;SDS011;22332;51.954;20.118;2023-07-31T16:28:48;2.50;;;1.40;;
35847;SDS011;22332;51.954;20.118;2023-07-31T16:31:54;2.60;;;1.40;;
35847;SDS011;22332;51.954;20.118;2023-07-31T16:35:00;3.80;;;1.40;;
35847;SDS011;22332;51.954;20.118;2023-07-31T16:38:06;2.00;;;1.70;;
35847;SDS011;22332;51.954;20.118;2023-07-31T16:41:12;3.20;;;1.50;;
35847;SDS011;22332;51.954;20.118;2023-07-31T16:44:17;2.60;;;1.30;;
35847;SDS011;22332;51.954;20.118;2023-07-31T16:47:23;2.10;;;1.70;;
35847;SDS011;22332;51.954;20.118;2023-07-31T16:50:29;4.20;;;1.60;;
35847;SDS011;22332;51.954;20.118;2023-07-31T16:53:34;1.80;;;1.50;;
35847;SDS011;22332;51.954;20.118;2023-07-31T16:56:41;2.10;;;1.60;;
35847;SDS011;22332;51.954;20.118;2023-07-31T16:59:46;2.90;;;1.50;;
35847;SDS011;22332;51.954;20.118;2023-07-31T17:02:52;2.00;;;1.60;;
35847;SDS011;22332;51.954;20.118;2023-07-31T17:05:58;3.80;;;1.60;;
35847;SDS011;22332;51.954;20.118;2023-07-31T17:09:03;3.30;;;2.00;;
35847;SDS011;22332;51.954;20.118;2023-07-31T17:12:09;2.00;;;1.50;;
35847;SDS011;22332;51.954;20.118;2023-07-31T17:15:15;2.00;;;1.50;;
35847;SDS011;22332;51.954;20.118;2023-07-31T17:18:21;2.00;;;1.60;;
35847;SDS011;22332;51.954;20.118;2023-07-31T17:21:27;3.20;;;1.70;;
35847;SDS011;22332;51.954;20.118;2023-07-31T17:24:33;3.20;;;1.80;;
35847;SDS011;22332;51.954;20.118;2023-07-31T17:27:38;3.30;;;2.10;;
35847;SDS011;22332;51.954;20.118;2023-07-31T17:30:47;4.10;;;2.20;;
35847;SDS011;22332;51.954;20.118;2023-07-31T17:33:52;3.00;;;1.60;;
35847;SDS011;22332;51.954;20.118;2023-07-31T17:36:59;2.60;;;1.90;;
35847;SDS011;22332;51.954;20.118;2023-07-31T17:40:05;2.80;;;1.60;;
35847;SDS011;22332;51.954;20.118;2023-07-31T17:43:12;2.60;;;1.60;;
35847;SDS011;22332;51.954;20.118;2023-07-31T17:46:18;2.00;;;1.70;;
35847;SDS011;22332;51.954;20.118;2023-07-31T17:49:25;2.00;;;1.50;;
35847;SDS011;22332;51.954;20.118;2023-07-31T17:52:32;1.60;;;1.40;;
35847;SDS011;22332;51.954;20.118;2023-07-31T17:55:38;2.20;;;1.50;;
35847;SDS011;22332;51.954;20.118;2023-07-31T17:58:45;3.20;;;1.60;;
35847;SDS011;22332;51.954;20.118;2023-07-31T18:01:50;3.10;;;1.90;;
35847;SDS011;22332;51.954;20.118;2023-07-31T18:04:56;2.20;;;1.60;;
35847;SDS011;22332;51.954;20.118;2023-07-31T18:08:02;2.10;;;1.40;;
35847;SDS011;22332;51.954;20.118;2023-07-31T18:11:07;3.10;;;1.60;;
35847;SDS011;22332;51.954;20.118;2023-07-31T18:14:13;2.40;;;1.50;;
35847;SDS011;22332;51.954;20.118;2023-07-31T18:17:19;2.30;;;1.60;;
35847;SDS011;22332;51.954;20.118;2023-07-31T18:20:24;3.00;;;1.70;;
35847;SDS011;22332;51.954;20.118;2023-07-31T18:23:30;2.50;;;1.90;;
35847;SDS011;22332;51.954;20.118;2023-07-31T18:26:37;2.50;;;1.70;;
35847;SDS011;22332;51.954;20.118;2023-07-31T18:29:42;3.20;;;1.90;;
35847;SDS011;22332;51.954;20.118;2023-07-31T18:32:48;3.30;;;2.00;;